sensor_id;sensor_type;location;lat;lon;timestamp;P1;durP1;ratioP1;P2;durP2;ratioP2
41229;SDS011;26964;50.428;19.218;2023-08-30T00:00:03;14.4;;;10.6;;
41229;SDS011;26964;50.428;19.218;2023-08-30T00:01:01;15.6;;;10.9;;
41229;SDS011;26964;50.428;19.218;2023-08-30T00:02:01;15.2;;;11.3;;
41229;SDS011;26964;50.428;19.218;2023-08-30T00:03:01;13.7;;;10.7;;
41229;SDS011;26964;50.428;19.218;2023-08-30T00:04:01;15.0;;;11.2;;
41229;SDS011;26964;50.428;19.218;2023-08-30T00:05:02;17.5;;;11.4;;
41229;SDS011;26964;50.428;19.218;2023-08-30T00:06:02;14.1;;;10.4;;
41229;SDS011;26964;50.428;19.218;2023-08-30T00:07:01;14.7;;;10.5;;
41229;SDS011;26964;50.428;19.218;2023-08-30T00:08:01;17.0;;;11.1;;
41229;SDS011;26964;50.428;19.218;2023-08-30T00:09:00;17.6;;;11.5;;
41229;SDS011;26964;50.428;19.218;2023-08-30T00:10:01;15.7;;;11.0;;
41229;SDS011;26964;50.428;19.218;2023-08-30T00:11:01;16.1;;;11.4;;
41229;SDS011;26964;50.428;19.218;2023-08-30T00:12:01;14.4;;;10.9;;
41229;SDS011;26964;50.428;19.218;2023-08-30T00:13:01;15.8;;;11.4;;
41229;SDS011;26964;50.428;19.218;2023-08-30T00:14:02;14.9;;;12.1;;
41229;SDS011;26964;50.428;19.218;2023-08-30T00:15:01;15.8;;;11.8;;
41229;SDS011;26964;50.428;19.218;2023-08-30T00:16:01;17.0;;;11.1;;
41229;SDS011;26964;50.428;19.218;2023-08-30T00:17:01;16.6;;;11.8;;
41229;SDS011;26964;50.428;19.218;2023-08-30T00:18:01;14.8;;;11.5;;
41229;SDS011;26964;50.428;19.218;2023-08-30T00:19:03;15.2;;;11.2;;
41229;SDS011;26964;50.428;19.218;2023-08-30T00:20:01;13.5;;;10.4;;
41229;SDS011;26964;50.428;19.218;2023-08-30T00:21:01;14.7;;;11.4;;
41229;SDS011;26964;50.428;19.218;2023-08-30T00:22:01;13.9;;;11.2;;
41229;SDS011;26964;50.428;19.218;2023-08-30T00:23:01;15.6;;;11.5;;
41229;SDS011;26964;50.428;19.218;2023-08-30T00:24:01;15.7;;;11.4;;
41229;SDS011;26964;50.428;19.218;2023-08-30T00:25:01;14.7;;;11.6;;
41229;SDS011;26964;50.428;19.218;2023-08-30T00:26:00;15.7;;;11.9;;
41229;SDS011;26964;50.428;19.218;2023-08-30T00:27:01;14.0;;;11.1;;
41229;SDS011;26964;50.428;19.218;2023-08-30T00:28:01;15.2;;;11.8;;
41229;SDS011;26964;50.428;19.218;2023-08-30T00:29:00;17.1;;;11.8;;
41229;SDS011;26964;50.428;19.218;2023-08-30T00:30:01;16.5;;;11.6;;
41229;SDS011;26964;50.428;19.218;2023-08-30T00:31:01;15.3;;;11.7;;
41229;SDS011;26964;50.428;19.218;2023-08-30T00:32:00;17.0;;;11.9;;
41229;SDS011;26964;50.428;19.218;2023-08-30T00:33:01;15.2;;;12.0;;
41229;SDS011;26964;50.428;19.218;2023-08-30T00:34:00;16.2;;;11.0;;
41229;SDS011;26964;50.428;19.218;2023-08-30T00:35:06;15.8;;;11.2;;
41229;SDS011;26964;50.428;19.218;2023-08-30T00:36:01;14.9;;;11.1;;
41229;SDS011;26964;50.428;19.218;2023-08-30T00:37:01;16.0;;;11.4;;
41229;SDS011;26964;50.428;19.218;2023-08-30T00:38:01;16.3;;;10.9;;
41229;SDS011;26964;50.428;19.218;2023-08-30T00:39:02;14.5;;;10.7;;
41229;SDS011;26964;50.428;19.218;2023-08-30T00:40:03;15.4;;;11.7;;
41229;SDS011;26964;50.428;19.218;2023-08-30T00:41:01;13.3;;;10.2;;
41229;SDS011;26964;50.428;19.218;2023-08-30T00:42:00;14.9;;;11.0;;
41229;SDS011;26964;50.428;19.218;2023-08-30T00:43:01;13.2;;;10.4;;
41229;SDS011;26964;50.428;19.218;2023-08-30T00:44:00;14.6;;;10.1;;
41229;SDS011;26964;50.428;19.218;2023-08-30T00:45:00;14.0;;;9.6;;
41229;SDS011;26964;50.428;19.218;2023-08-30T00:46:00;12.6;;;9.5;;
41229;SDS011;26964;50.428;19.218;2023-08-30T00:47:01;14.6;;;10.2;;
41229;SDS011;26964;50.428;19.218;2023-08-30T00:48:00;13.3;;;10.2;;
41229;SDS011;26964;50.428;19.218;2023-08-30T00:49:00;14.8;;;9.7;;
41229;SDS011;26964;50.428;19.218;2023-08-30T00:50:01;14.1;;;10.2;;
41229;SDS011;26964;50.428;19.218;2023-08-30T00:51:01;13.5;;;10.2;;
41229;SDS011;26964;50.428;19.218;2023-08-30T00:52:01;15.0;;;10.3;;
41229;SDS011;26964;50.428;19.218;2023-08-30T00:53:04;13.1;;;10.6;;
41229;SDS011;26964;50.428;19.218;2023-08-30T00:54:00;13.5;;;10.1;;
41229;SDS011;26964;50.428;19.218;2023-08-30T00:55:00;13.1;;;9.2;;
41229;SDS011;26964;50.428;19.218;2023-08-30T00:56:01;14.4;;;9.6;;
41229;SDS011;26964;50.428;19.218;2023-08-30T00:57:01;14.3;;;9.8;;
41229;SDS011;26964;50.428;19.218;2023-08-30T00:58:01;14.0;;;9.7;;
41229;SDS011;26964;50.428;19.218;2023-08-30T00:59:00;13.2;;;9.7;;
41229;SDS011;26964;50.428;19.218;2023-08-30T01:00:02;13.2;;;9.6;;
41229;SDS011;26964;50.428;19.218;2023-08-30T01:01:03;13.6;;;10.4;;
41229;SDS011;26964;50.428;19.218;2023-08-30T01:02:01;14.4;;;9.9;;
41229;SDS011;26964;50.428;19.218;2023-08-30T01:03:01;12.8;;;9.2;;
41229;SDS011;26964;50.428;19.218;2023-08-30T01:04:01;15.2;;;10.7;;
41229;SDS011;26964;50.428;19.218;2023-08-30T01:05:01;14.4;;;9.6;;
41229;SDS011;26964;50.428;19.218;2023-08-30T01:06:01;14.5;;;10.0;;
41229;SDS011;26964;50.428;19.218;2023-08-30T01:07:00;12.6;;;9.2;;
41229;SDS011;26964;50.428;19.218;2023-08-30T01:08:01;13.8;;;10.0;;
41229;SDS011;26964;50.428;19.218;2023-08-30T01:09:01;13.4;;;8.9;;
41229;SDS011;26964;50.428;19.218;2023-08-30T01:10:00;14.1;;;10.2;;
41229;SDS011;26964;50.428;19.218;2023-08-30T01:11:02;12.6;;;9.7;;
41229;SDS011;26964;50.428;19.218;2023-08-30T01:12:02;15.5;;;10.3;;
41229;SDS011;26964;50.428;19.218;2023-08-30T01:13:03;13.9;;;9.4;;
41229;SDS011;26964;50.428;19.218;2023-08-30T01:14:02;15.0;;;9.5;;
41229;SDS011;26964;50.428;19.218;2023-08-30T01:15:02;16.3;;;10.6;;
41229;SDS011;26964;50.428;19.218;2023-08-30T01:16:00;13.7;;;9.9;;
41229;SDS011;26964;50.428;19.218;2023-08-30T01:17:00;13.6;;;9.0;;
41229;SDS011;26964;50.428;19.218;2023-08-30T01:18:00;15.3;;;10.4;;
41229;SDS011;26964;50.428;19.218;2023-08-30T01:19:01;14.8;;;9.8;;
41229;SDS011;26964;50.428;19.218;2023-08-30T01:20:02;14.7;;;10.0;;
41229;SDS011;26964;50.428;19.218;2023-08-30T01:21:01;14.6;;;9.5;;
41229;SDS011;26964;50.428;19.218;2023-08-30T01:22:05;13.0;;;9.1;;
41229;SDS011;26964;50.428;19.218;2023-08-30T01:23:02;13.5;;;9.6;;
41229;SDS011;26964;50.428;19.218;2023-08-30T01:24:01;14.9;;;9.7;;
41229;SDS011;26964;50.428;19.218;2023-08-30T01:25:08;14.3;;;9.2;;
41229;SDS011;26964;50.428;19.218;2023-08-30T01:26:02;16.3;;;10.4;;
41229;SDS011;26964;50.428;19.218;2023-08-30T01:28:01;15.6;;;9.6;;
41229;SDS011;26964;50.428;19.218;2023-08-30T01:29:00;14.8;;;10.1;;
41229;SDS011;26964;50.428;19.218;2023-08-30T01:30:01;15.7;;;9.7;;
41229;SDS011;26964;50.428;19.218;2023-08-30T01:31:00;13.5;;;9.4;;
41229;SDS011;26964;50.428;19.218;2023-08-30T01:32:01;15.2;;;9.7;;
41229;SDS011;26964;50.428;19.218;2023-08-30T01:33:01;15.1;;;9.6;;
41229;SDS011;26964;50.428;19.218;2023-08-30T01:34:01;14.1;;;9.3;;
41229;SDS011;26964;50.428;19.218;2023-08-30T01:35:01;14.2;;;9.4;;
41229;SDS011;26964;50.428;19.218;2023-08-30T01:36:00;14.1;;;9.9;;
41229;SDS011;26964;50.428;19.218;2023-08-30T01:37:01;14.0;;;9.1;;
41229;SDS011;26964;50.428;19.218;2023-08-30T01:38:04;13.4;;;9.0;;
41229;SDS011;26964;50.428;19.218;2023-08-30T01:39:01;15.4;;;9.2;;
41229;SDS011;26964;50.428;19.218;2023-08-30T01:40:01;14.9;;;9.4;;
41229;SDS011;26964;50.428;19.218;2023-08-30T01:41:00;14.7;;;9.2;;
41229;SDS011;26964;50.428;19.218;2023-08-30T01:42:01;11.4;;;8.4;;
41229;SDS011;26964;50.428;19.218;2023-08-30T01:43:03;13.6;;;8.1;;
41229;SDS011;26964;50.428;19.218;2023-08-30T01:44:00;12.9;;;8.0;;
41229;SDS011;26964;50.428;19.218;2023-08-30T01:45:01;11.5;;;7.5;;
41229;SDS011;26964;50.428;19.218;2023-08-30T01:46:01;9.6;;;7.0;;
41229;SDS011;26964;50.428;19.218;2023-08-30T01:47:00;12.5;;;7.0;;
41229;SDS011;26964;50.428;19.218;2023-08-30T01:48:00;10.7;;;7.1;;
41229;SDS011;26964;50.428;19.218;2023-08-30T01:49:01;11.8;;;7.0;;
41229;SDS011;26964;50.428;19.218;2023-08-30T01:50:00;10.2;;;7.3;;
41229;SDS011;26964;50.428;19.218;2023-08-30T01:51:01;10.7;;;6.6;;
41229;SDS011;26964;50.428;19.218;2023-08-30T01:52:00;9.7;;;7.0;;
41229;SDS011;26964;50.428;19.218;2023-08-30T01:53:02;9.9;;;6.9;;
41229;SDS011;26964;50.428;19.218;2023-08-30T01:54:00;9.8;;;6.2;;
41229;SDS011;26964;50.428;19.218;2023-08-30T01:55:01;10.4;;;6.5;;
41229;SDS011;26964;50.428;19.218;2023-08-30T01:56:00;10.1;;;6.0;;
41229;SDS011;26964;50.428;19.218;2023-08-30T01:57:01;9.1;;;5.6;;
41229;SDS011;26964;50.428;19.218;2023-08-30T01:58:01;8.0;;;5.7;;
41229;SDS011;26964;50.428;19.218;2023-08-30T01:59:00;7.7;;;5.6;;
41229;SDS011;26964;50.428;19.218;2023-08-30T02:00:02;9.5;;;5.0;;
41229;SDS011;26964;50.428;19.218;2023-08-30T02:01:01;7.6;;;5.4;;
41229;SDS011;26964;50.428;19.218;2023-08-30T02:02:00;6.6;;;4.7;;
41229;SDS011;26964;50.428;19.218;2023-08-30T02:04:03;7.0;;;4.4;;
41229;SDS011;26964;50.428;19.218;2023-08-30T02:05:02;7.3;;;4.8;;
41229;SDS011;26964;50.428;19.218;2023-08-30T02:06:02;8.4;;;4.8;;
41229;SDS011;26964;50.428;19.218;2023-08-30T02:07:02;7.7;;;5.1;;
41229;SDS011;26964;50.428;19.218;2023-08-30T02:08:02;7.2;;;4.6;;
41229;SDS011;26964;50.428;19.218;2023-08-30T02:09:01;9.5;;;4.7;;
41229;SDS011;26964;50.428;19.218;2023-08-30T02:10:02;5.9;;;3.9;;
41229;SDS011;26964;50.428;19.218;2023-08-30T02:11:01;7.8;;;4.5;;
41229;SDS011;26964;50.428;19.218;2023-08-30T02:12:00;5.5;;;3.7;;
41229;SDS011;26964;50.428;19.218;2023-08-30T02:13:01;6.1;;;4.2;;
41229;SDS011;26964;50.428;19.218;2023-08-30T02:14:01;6.4;;;4.1;;
41229;SDS011;26964;50.428;19.218;2023-08-30T02:15:00;7.0;;;4.1;;
41229;SDS011;26964;50.428;19.218;2023-08-30T02:16:00;6.2;;;4.4;;
41229;SDS011;26964;50.428;19.218;2023-08-30T02:17:00;6.8;;;4.2;;
41229;SDS011;26964;50.428;19.218;2023-08-30T02:18:00;6.1;;;3.7;;
41229;SDS011;26964;50.428;19.218;2023-08-30T02:19:00;4.7;;;3.6;;
41229;SDS011;26964;50.428;19.218;2023-08-30T02:20:01;5.0;;;3.6;;
41229;SDS011;26964;50.428;19.218;2023-08-30T02:21:01;5.8;;;4.1;;
41229;SDS011;26964;50.428;19.218;2023-08-30T02:22:01;5.1;;;3.6;;
41229;SDS011;26964;50.428;19.218;2023-08-30T02:23:01;6.1;;;3.5;;
41229;SDS011;26964;50.428;19.218;2023-08-30T02:24:01;6.1;;;4.1;;
41229;SDS011;26964;50.428;19.218;2023-08-30T02:25:00;6.2;;;3.8;;
41229;SDS011;26964;50.428;19.218;2023-08-30T02:26:03;5.8;;;3.7;;
41229;SDS011;26964;50.428;19.218;2023-08-30T02:27:00;6.6;;;4.0;;
41229;SDS011;26964;50.428;19.218;2023-08-30T02:28:01;6.5;;;4.0;;
41229;SDS011;26964;50.428;19.218;2023-08-30T02:29:00;5.6;;;3.6;;
41229;SDS011;26964;50.428;19.218;2023-08-30T02:30:02;4.9;;;3.5;;
41229;SDS011;26964;50.428;19.218;2023-08-30T02:31:00;5.0;;;3.6;;
41229;SDS011;26964;50.428;19.218;2023-08-30T02:32:00;5.8;;;3.8;;
41229;SDS011;26964;50.428;19.218;2023-08-30T02:33:01;4.5;;;3.4;;
41229;SDS011;26964;50.428;19.218;2023-08-30T02:34:00;4.9;;;3.5;;
41229;SDS011;26964;50.428;19.218;2023-08-30T02:35:03;4.8;;;3.5;;
41229;SDS011;26964;50.428;19.218;2023-08-30T02:36:00;5.6;;;3.7;;
41229;SDS011;26964;50.428;19.218;2023-08-30T02:37:00;5.7;;;3.3;;
41229;SDS011;26964;50.428;19.218;2023-08-30T02:38:00;5.2;;;3.6;;
41229;SDS011;26964;50.428;19.218;2023-08-30T02:39:00;5.5;;;3.7;;
41229;SDS011;26964;50.428;19.218;2023-08-30T02:40:00;9.0;;;3.8;;
41229;SDS011;26964;50.428;19.218;2023-08-30T02:41:01;4.8;;;3.6;;
41229;SDS011;26964;50.428;19.218;2023-08-30T02:42:01;4.7;;;3.1;;
41229;SDS011;26964;50.428;19.218;2023-08-30T02:43:00;4.7;;;3.6;;
41229;SDS011;26964;50.428;19.218;2023-08-30T02:44:00;6.2;;;4.1;;
41229;SDS011;26964;50.428;19.218;2023-08-30T02:45:01;4.7;;;3.7;;
41229;SDS011;26964;50.428;19.218;2023-08-30T02:46:02;5.9;;;3.7;;
41229;SDS011;26964;50.428;19.218;2023-08-30T02:47:00;5.5;;;3.5;;
41229;SDS011;26964;50.428;19.218;2023-08-30T02:48:01;5.2;;;3.5;;
41229;SDS011;26964;50.428;19.218;2023-08-30T02:49:00;5.5;;;3.2;;
41229;SDS011;26964;50.428;19.218;2023-08-30T02:50:01;4.1;;;3.4;;
41229;SDS011;26964;50.428;19.218;2023-08-30T02:51:00;4.6;;;3.3;;
41229;SDS011;26964;50.428;19.218;2023-08-30T02:52:00;5.0;;;3.3;;
41229;SDS011;26964;50.428;19.218;2023-08-30T02:53:01;4.0;;;3.3;;
41229;SDS011;26964;50.428;19.218;2023-08-30T02:54:00;5.0;;;3.2;;
41229;SDS011;26964;50.428;19.218;2023-08-30T02:55:00;4.9;;;3.7;;
41229;SDS011;26964;50.428;19.218;2023-08-30T02:56:03;5.3;;;3.5;;
41229;SDS011;26964;50.428;19.218;2023-08-30T02:57:00;5.4;;;3.6;;
41229;SDS011;26964;50.428;19.218;2023-08-30T02:58:00;4.5;;;3.5;;
41229;SDS011;26964;50.428;19.218;2023-08-30T02:59:00;6.5;;;3.5;;
41229;SDS011;26964;50.428;19.218;2023-08-30T03:00:01;5.1;;;3.1;;
41229;SDS011;26964;50.428;19.218;2023-08-30T03:01:01;5.0;;;3.4;;
41229;SDS011;26964;50.428;19.218;2023-08-30T03:02:00;5.5;;;3.7;;
41229;SDS011;26964;50.428;19.218;2023-08-30T03:03:00;4.4;;;3.2;;
41229;SDS011;26964;50.428;19.218;2023-08-30T03:04:01;4.3;;;3.2;;
41229;SDS011;26964;50.428;19.218;2023-08-30T03:05:00;5.1;;;3.3;;
41229;SDS011;26964;50.428;19.218;2023-08-30T03:06:02;4.8;;;3.0;;
41229;SDS011;26964;50.428;19.218;2023-08-30T03:07:02;5.3;;;3.9;;
41229;SDS011;26964;50.428;19.218;2023-08-30T03:08:01;5.6;;;4.0;;
41229;SDS011;26964;50.428;19.218;2023-08-30T03:09:00;7.0;;;4.0;;
41229;SDS011;26964;50.428;19.218;2023-08-30T03:10:01;5.0;;;3.8;;
41229;SDS011;26964;50.428;19.218;2023-08-30T03:12:00;5.9;;;3.8;;
41229;SDS011;26964;50.428;19.218;2023-08-30T03:13:00;5.4;;;3.9;;
41229;SDS011;26964;50.428;19.218;2023-08-30T03:14:01;5.0;;;3.8;;
41229;SDS011;26964;50.428;19.218;2023-08-30T03:15:01;6.1;;;3.8;;
41229;SDS011;26964;50.428;19.218;2023-08-30T03:16:01;7.2;;;4.1;;
41229;SDS011;26964;50.428;19.218;2023-08-30T03:17:01;6.3;;;4.3;;
41229;SDS011;26964;50.428;19.218;2023-08-30T03:18:01;5.9;;;4.2;;
41229;SDS011;26964;50.428;19.218;2023-08-30T03:19:01;6.4;;;4.4;;
41229;SDS011;26964;50.428;19.218;2023-08-30T03:20:01;6.3;;;4.4;;
41229;SDS011;26964;50.428;19.218;2023-08-30T03:21:00;6.2;;;4.5;;
41229;SDS011;26964;50.428;19.218;2023-08-30T03:22:01;5.5;;;4.2;;
41229;SDS011;26964;50.428;19.218;2023-08-30T03:23:00;5.3;;;4.1;;
41229;SDS011;26964;50.428;19.218;2023-08-30T03:24:01;8.3;;;4.7;;
41229;SDS011;26964;50.428;19.218;2023-08-30T03:25:01;8.0;;;4.2;;
41229;SDS011;26964;50.428;19.218;2023-08-30T03:27:01;6.8;;;4.4;;
41229;SDS011;26964;50.428;19.218;2023-08-30T03:28:01;6.1;;;4.3;;
41229;SDS011;26964;50.428;19.218;2023-08-30T03:29:04;7.1;;;4.6;;
41229;SDS011;26964;50.428;19.218;2023-08-30T03:30:01;6.3;;;4.3;;
41229;SDS011;26964;50.428;19.218;2023-08-30T03:31:00;6.5;;;4.4;;
41229;SDS011;26964;50.428;19.218;2023-08-30T03:32:01;6.1;;;4.2;;
41229;SDS011;26964;50.428;19.218;2023-08-30T03:33:01;6.6;;;4.9;;
41229;SDS011;26964;50.428;19.218;2023-08-30T03:34:01;5.4;;;4.1;;
41229;SDS011;26964;50.428;19.218;2023-08-30T03:35:00;6.1;;;4.5;;
41229;SDS011;26964;50.428;19.218;2023-08-30T03:36:00;5.0;;;4.2;;
41229;SDS011;26964;50.428;19.218;2023-08-30T03:37:00;6.0;;;4.7;;
41229;SDS011;26964;50.428;19.218;2023-08-30T03:38:00;6.1;;;4.2;;
41229;SDS011;26964;50.428;19.218;2023-08-30T03:39:00;5.5;;;4.5;;
41229;SDS011;26964;50.428;19.218;2023-08-30T03:40:01;6.8;;;4.6;;
41229;SDS011;26964;50.428;19.218;2023-08-30T03:41:00;5.9;;;4.6;;
41229;SDS011;26964;50.428;19.218;2023-08-30T03:42:01;5.9;;;4.3;;
41229;SDS011;26964;50.428;19.218;2023-08-30T03:43:01;5.7;;;4.3;;
41229;SDS011;26964;50.428;19.218;2023-08-30T03:44:01;5.6;;;4.3;;
41229;SDS011;26964;50.428;19.218;2023-08-30T03:45:01;4.7;;;3.9;;
41229;SDS011;26964;50.428;19.218;2023-08-30T03:46:04;6.2;;;4.6;;
41229;SDS011;26964;50.428;19.218;2023-08-30T03:47:01;5.9;;;4.6;;
41229;SDS011;26964;50.428;19.218;2023-08-30T03:48:02;5.8;;;4.6;;
41229;SDS011;26964;50.428;19.218;2023-08-30T03:49:00;8.8;;;4.9;;
41229;SDS011;26964;50.428;19.218;2023-08-30T03:50:02;7.2;;;5.1;;
41229;SDS011;26964;50.428;19.218;2023-08-30T03:51:04;7.5;;;5.4;;
41229;SDS011;26964;50.428;19.218;2023-08-30T03:52:01;6.9;;;5.1;;
41229;SDS011;26964;50.428;19.218;2023-08-30T03:53:00;7.2;;;5.4;;
41229;SDS011;26964;50.428;19.218;2023-08-30T03:54:00;8.8;;;5.5;;
41229;SDS011;26964;50.428;19.218;2023-08-30T03:55:01;7.7;;;5.3;;
41229;SDS011;26964;50.428;19.218;2023-08-30T03:56:00;7.0;;;5.2;;
41229;SDS011;26964;50.428;19.218;2023-08-30T03:57:01;8.2;;;5.1;;
41229;SDS011;26964;50.428;19.218;2023-08-30T03:58:00;8.3;;;5.4;;
41229;SDS011;26964;50.428;19.218;2023-08-30T03:59:01;8.1;;;5.2;;
41229;SDS011;26964;50.428;19.218;2023-08-30T04:00:01;6.3;;;5.3;;
41229;SDS011;26964;50.428;19.218;2023-08-30T04:01:01;8.1;;;5.9;;
41229;SDS011;26964;50.428;19.218;2023-08-30T04:02:01;8.3;;;5.2;;
41229;SDS011;26964;50.428;19.218;2023-08-30T04:03:01;8.7;;;6.1;;
41229;SDS011;26964;50.428;19.218;2023-08-30T04:04:00;7.9;;;5.5;;
41229;SDS011;26964;50.428;19.218;2023-08-30T04:05:01;7.5;;;5.1;;
41229;SDS011;26964;50.428;19.218;2023-08-30T04:06:00;9.9;;;6.0;;
41229;SDS011;26964;50.428;19.218;2023-08-30T04:07:01;8.4;;;5.5;;
41229;SDS011;26964;50.428;19.218;2023-08-30T04:08:01;6.9;;;5.4;;
41229;SDS011;26964;50.428;19.218;2023-08-30T04:09:00;7.9;;;5.9;;
41229;SDS011;26964;50.428;19.218;2023-08-30T04:10:01;8.4;;;6.8;;
41229;SDS011;26964;50.428;19.218;2023-08-30T04:11:01;7.4;;;6.2;;
41229;SDS011;26964;50.428;19.218;2023-08-30T04:12:03;8.5;;;6.2;;
41229;SDS011;26964;50.428;19.218;2023-08-30T04:13:01;8.6;;;6.5;;
41229;SDS011;26964;50.428;19.218;2023-08-30T04:14:00;8.8;;;6.2;;
41229;SDS011;26964;50.428;19.218;2023-08-30T04:15:00;8.4;;;6.8;;
41229;SDS011;26964;50.428;19.218;2023-08-30T04:16:00;8.3;;;6.2;;
41229;SDS011;26964;50.428;19.218;2023-08-30T04:17:00;8.8;;;6.9;;
41229;SDS011;26964;50.428;19.218;2023-08-30T04:18:00;9.0;;;6.5;;
41229;SDS011;26964;50.428;19.218;2023-08-30T04:19:00;9.0;;;6.8;;
41229;SDS011;26964;50.428;19.218;2023-08-30T04:20:00;10.8;;;6.8;;
41229;SDS011;26964;50.428;19.218;2023-08-30T04:21:01;9.4;;;6.9;;
41229;SDS011;26964;50.428;19.218;2023-08-30T04:22:01;8.6;;;6.7;;
41229;SDS011;26964;50.428;19.218;2023-08-30T04:23:00;10.0;;;7.5;;
41229;SDS011;26964;50.428;19.218;2023-08-30T04:24:00;9.9;;;7.2;;
41229;SDS011;26964;50.428;19.218;2023-08-30T04:25:00;10.3;;;6.9;;
41229;SDS011;26964;50.428;19.218;2023-08-30T04:26:00;11.0;;;7.4;;
41229;SDS011;26964;50.428;19.218;2023-08-30T04:27:00;10.1;;;6.9;;
41229;SDS011;26964;50.428;19.218;2023-08-30T04:28:00;10.2;;;7.4;;
41229;SDS011;26964;50.428;19.218;2023-08-30T04:29:00;9.0;;;7.2;;
41229;SDS011;26964;50.428;19.218;2023-08-30T04:30:01;10.7;;;7.4;;
41229;SDS011;26964;50.428;19.218;2023-08-30T04:31:00;10.3;;;7.1;;
41229;SDS011;26964;50.428;19.218;2023-08-30T04:32:01;8.9;;;7.0;;
41229;SDS011;26964;50.428;19.218;2023-08-30T04:33:04;9.2;;;7.3;;
41229;SDS011;26964;50.428;19.218;2023-08-30T04:34:00;10.0;;;7.7;;
41229;SDS011;26964;50.428;19.218;2023-08-30T04:35:01;10.4;;;7.1;;
41229;SDS011;26964;50.428;19.218;2023-08-30T04:36:00;10.7;;;7.9;;
41229;SDS011;26964;50.428;19.218;2023-08-30T04:37:00;10.9;;;7.8;;
41229;SDS011;26964;50.428;19.218;2023-08-30T04:38:01;10.3;;;6.9;;
41229;SDS011;26964;50.428;19.218;2023-08-30T04:39:01;10.7;;;7.5;;
41229;SDS011;26964;50.428;19.218;2023-08-30T04:40:00;10.2;;;7.8;;
41229;SDS011;26964;50.428;19.218;2023-08-30T04:41:00;9.8;;;7.6;;
41229;SDS011;26964;50.428;19.218;2023-08-30T04:42:01;11.7;;;8.1;;
41229;SDS011;26964;50.428;19.218;2023-08-30T04:43:01;12.7;;;8.3;;
41229;SDS011;26964;50.428;19.218;2023-08-30T04:44:00;10.7;;;7.9;;
41229;SDS011;26964;50.428;19.218;2023-08-30T04:45:00;12.7;;;8.7;;
41229;SDS011;26964;50.428;19.218;2023-08-30T04:46:00;12.5;;;8.7;;
41229;SDS011;26964;50.428;19.218;2023-08-30T04:47:00;11.9;;;8.3;;
41229;SDS011;26964;50.428;19.218;2023-08-30T04:48:00;11.7;;;7.8;;
41229;SDS011;26964;50.428;19.218;2023-08-30T04:49:01;12.8;;;8.6;;
41229;SDS011;26964;50.428;19.218;2023-08-30T04:50:00;12.9;;;8.3;;
41229;SDS011;26964;50.428;19.218;2023-08-30T04:51:01;15.4;;;9.2;;
41229;SDS011;26964;50.428;19.218;2023-08-30T04:52:01;12.6;;;8.9;;
41229;SDS011;26964;50.428;19.218;2023-08-30T04:53:00;14.6;;;9.9;;
41229;SDS011;26964;50.428;19.218;2023-08-30T04:54:04;14.7;;;9.5;;
41229;SDS011;26964;50.428;19.218;2023-08-30T04:55:00;17.8;;;9.4;;
41229;SDS011;26964;50.428;19.218;2023-08-30T04:56:09;15.9;;;10.1;;
41229;SDS011;26964;50.428;19.218;2023-08-30T04:57:00;16.8;;;10.0;;
41229;SDS011;26964;50.428;19.218;2023-08-30T04:58:02;13.3;;;9.6;;
41229;SDS011;26964;50.428;19.218;2023-08-30T04:59:00;15.3;;;9.5;;
41229;SDS011;26964;50.428;19.218;2023-08-30T05:00:01;15.0;;;10.1;;
41229;SDS011;26964;50.428;19.218;2023-08-30T05:01:01;13.5;;;9.5;;
41229;SDS011;26964;50.428;19.218;2023-08-30T05:02:01;15.0;;;10.2;;
41229;SDS011;26964;50.428;19.218;2023-08-30T05:03:00;13.4;;;9.3;;
41229;SDS011;26964;50.428;19.218;2023-08-30T05:04:00;16.1;;;9.9;;
41229;SDS011;26964;50.428;19.218;2023-08-30T05:05:00;16.3;;;10.0;;
41229;SDS011;26964;50.428;19.218;2023-08-30T05:06:01;15.5;;;9.7;;
41229;SDS011;26964;50.428;19.218;2023-08-30T05:07:00;14.7;;;9.9;;
41229;SDS011;26964;50.428;19.218;2023-08-30T05:08:00;15.7;;;10.6;;
41229;SDS011;26964;50.428;19.218;2023-08-30T05:09:00;15.0;;;10.2;;
41229;SDS011;26964;50.428;19.218;2023-08-30T05:10:00;16.7;;;9.8;;
41229;SDS011;26964;50.428;19.218;2023-08-30T05:11:00;20.3;;;11.5;;
41229;SDS011;26964;50.428;19.218;2023-08-30T05:12:00;16.0;;;10.6;;
41229;SDS011;26964;50.428;19.218;2023-08-30T05:13:01;18.8;;;10.9;;
41229;SDS011;26964;50.428;19.218;2023-08-30T05:14:00;16.8;;;10.4;;
41229;SDS011;26964;50.428;19.218;2023-08-30T05:15:05;17.6;;;10.2;;
41229;SDS011;26964;50.428;19.218;2023-08-30T05:16:01;16.4;;;10.4;;
41229;SDS011;26964;50.428;19.218;2023-08-30T05:17:00;16.7;;;10.6;;
41229;SDS011;26964;50.428;19.218;2023-08-30T05:18:00;18.4;;;11.7;;
41229;SDS011;26964;50.428;19.218;2023-08-30T05:19:00;16.7;;;10.5;;
41229;SDS011;26964;50.428;19.218;2023-08-30T05:20:00;18.8;;;10.9;;
41229;SDS011;26964;50.428;19.218;2023-08-30T05:21:01;17.7;;;11.5;;
41229;SDS011;26964;50.428;19.218;2023-08-30T05:22:00;17.8;;;10.7;;
41229;SDS011;26964;50.428;19.218;2023-08-30T05:23:00;17.2;;;11.2;;
41229;SDS011;26964;50.428;19.218;2023-08-30T05:24:01;17.4;;;11.7;;
41229;SDS011;26964;50.428;19.218;2023-08-30T05:25:02;16.6;;;11.1;;
41229;SDS011;26964;50.428;19.218;2023-08-30T05:26:01;18.6;;;11.4;;
41229;SDS011;26964;50.428;19.218;2023-08-30T05:27:01;20.1;;;12.2;;
41229;SDS011;26964;50.428;19.218;2023-08-30T05:28:00;19.2;;;10.9;;
41229;SDS011;26964;50.428;19.218;2023-08-30T05:29:00;18.1;;;11.9;;
41229;SDS011;26964;50.428;19.218;2023-08-30T05:30:01;16.5;;;10.6;;
41229;SDS011;26964;50.428;19.218;2023-08-30T05:31:00;18.0;;;11.0;;
41229;SDS011;26964;50.428;19.218;2023-08-30T05:32:00;17.2;;;10.8;;
41229;SDS011;26964;50.428;19.218;2023-08-30T05:33:01;17.2;;;11.2;;
41229;SDS011;26964;50.428;19.218;2023-08-30T05:34:01;16.0;;;10.7;;
41229;SDS011;26964;50.428;19.218;2023-08-30T05:35:01;17.7;;;11.1;;
41229;SDS011;26964;50.428;19.218;2023-08-30T05:36:04;17.2;;;11.3;;
41229;SDS011;26964;50.428;19.218;2023-08-30T05:37:01;15.3;;;10.7;;
41229;SDS011;26964;50.428;19.218;2023-08-30T05:38:01;18.5;;;11.1;;
41229;SDS011;26964;50.428;19.218;2023-08-30T05:39:00;19.9;;;13.0;;
41229;SDS011;26964;50.428;19.218;2023-08-30T05:40:01;19.0;;;12.5;;
41229;SDS011;26964;50.428;19.218;2023-08-30T05:41:00;23.0;;;13.6;;
41229;SDS011;26964;50.428;19.218;2023-08-30T05:42:00;20.2;;;12.6;;
41229;SDS011;26964;50.428;19.218;2023-08-30T05:43:01;23.7;;;14.6;;
41229;SDS011;26964;50.428;19.218;2023-08-30T05:44:01;29.3;;;18.7;;
41229;SDS011;26964;50.428;19.218;2023-08-30T05:45:01;24.6;;;17.0;;
41229;SDS011;26964;50.428;19.218;2023-08-30T05:46:01;23.9;;;14.4;;
41229;SDS011;26964;50.428;19.218;2023-08-30T05:47:00;25.1;;;14.7;;
41229;SDS011;26964;50.428;19.218;2023-08-30T05:48:01;28.1;;;16.7;;
41229;SDS011;26964;50.428;19.218;2023-08-30T05:49:02;27.3;;;16.2;;
41229;SDS011;26964;50.428;19.218;2023-08-30T05:50:01;28.2;;;15.1;;
41229;SDS011;26964;50.428;19.218;2023-08-30T05:51:01;26.0;;;15.8;;
41229;SDS011;26964;50.428;19.218;2023-08-30T05:52:00;28.1;;;16.3;;
41229;SDS011;26964;50.428;19.218;2023-08-30T05:53:00;26.6;;;14.4;;
41229;SDS011;26964;50.428;19.218;2023-08-30T05:54:01;24.5;;;13.3;;
41229;SDS011;26964;50.428;19.218;2023-08-30T05:55:00;20.9;;;13.3;;
41229;SDS011;26964;50.428;19.218;2023-08-30T05:56:01;24.9;;;13.9;;
41229;SDS011;26964;50.428;19.218;2023-08-30T05:57:04;25.6;;;14.5;;
41229;SDS011;26964;50.428;19.218;2023-08-30T05:58:00;27.8;;;14.8;;
41229;SDS011;26964;50.428;19.218;2023-08-30T05:59:00;27.3;;;15.2;;
41229;SDS011;26964;50.428;19.218;2023-08-30T06:00:02;23.8;;;13.9;;
41229;SDS011;26964;50.428;19.218;2023-08-30T06:01:02;25.3;;;13.7;;
41229;SDS011;26964;50.428;19.218;2023-08-30T06:02:01;27.9;;;14.2;;
41229;SDS011;26964;50.428;19.218;2023-08-30T06:03:01;28.9;;;13.9;;
41229;SDS011;26964;50.428;19.218;2023-08-30T06:04:00;24.4;;;13.4;;
41229;SDS011;26964;50.428;19.218;2023-08-30T06:05:01;27.0;;;14.6;;